sensor_id;sensor_type;location;lat;lon;timestamp;pressure;altitude;pressure_sealevel;temperature;humidity
51999;BME280;38015;50.924;11.598;2023-01-06T00:02:27;99898.75;;;22.39;31.82
51999;BME280;38015;50.924;11.598;2023-01-06T00:04:57;99905.28;;;22.38;31.83
51999;BME280;38015;50.924;11.598;2023-01-06T00:07:28;99901.64;;;22.36;31.85
51999;BME280;38015;50.924;11.598;2023-01-06T00:09:58;99905.08;;;22.33;31.91
51999;BME280;38015;50.924;11.598;2023-01-06T00:12:28;99907.50;;;22.33;31.92
51999;BME280;38015;50.924;11.598;2023-01-06T00:14:59;99907.62;;;22.36;31.83
51999;BME280;38015;50.924;11.598;2023-01-06T00:17:30;99898.96;;;22.48;31.61
51999;BME280;38015;50.924;11.598;2023-01-06T00:20:00;99896.24;;;22.47;31.61
51999;BME280;38015;50.924;11.598;2023-01-06T00:22:31;99891.90;;;22.38;31.77
51999;BME280;38015;50.924;11.598;2023-01-06T00:25:01;99891.54;;;22.41;31.73
51999;BME280;38015;50.924;11.598;2023-01-06T00:27:32;99891.13;;;22.27;32.01
51999;BME280;38015;50.924;11.598;2023-01-06T00:30:03;99893.33;;;22.40;31.73
51999;BME280;38015;50.924;11.598;2023-01-06T00:32:32;99893.61;;;22.39;31.71
51999;BME280;38015;50.924;11.598;2023-01-06T00:35:03;99891.82;;;22.42;31.67
51999;BME280;38015;50.924;11.598;2023-01-06T00:37:33;99887.69;;;22.35;31.81
51999;BME280;38015;50.924;11.598;2023-01-06T00:40:04;99884.46;;;22.47;31.55
51999;BME280;38015;50.924;11.598;2023-01-06T00:42:34;99882.32;;;22.54;31.40
51999;BME280;38015;50.924;11.598;2023-01-06T00:45:05;99881.79;;;22.36;31.71
51999;BME280;38015;50.924;11.598;2023-01-06T00:47:35;99884.82;;;22.38;31.70
51999;BME280;38015;50.924;11.598;2023-01-06T00:50:06;99883.51;;;22.38;31.69
51999;BME280;38015;50.924;11.598;2023-01-06T00:52:36;99882.51;;;22.25;31.91
51999;BME280;38015;50.924;11.598;2023-01-06T00:55:07;99875.36;;;22.41;31.61
51999;BME280;38015;50.924;11.598;2023-01-06T00:57:37;99871.98;;;22.54;31.36
51999;BME280;38015;50.924;11.598;2023-01-06T01:00:09;99868.26;;;22.19;32.00
51999;BME280;38015;50.924;11.598;2023-01-06T01:02:38;99870.79;;;22.43;31.53
51999;BME280;38015;50.924;11.598;2023-01-06T01:05:08;99873.79;;;22.45;31.47
51999;BME280;38015;50.924;11.598;2023-01-06T01:07:38;99873.01;;;22.39;31.61
51999;BME280;38015;50.924;11.598;2023-01-06T01:10:10;99867.77;;;22.34;31.71
51999;BME280;38015;50.924;11.598;2023-01-06T01:12:39;99864.06;;;22.37;31.63
51999;BME280;38015;50.924;11.598;2023-01-06T01:15:10;99862.52;;;22.16;32.05
51999;BME280;38015;50.924;11.598;2023-01-06T01:17:40;99862.98;;;22.16;32.06
51999;BME280;38015;50.924;11.598;2023-01-06T01:20:11;99860.54;;;22.27;31.86
51999;BME280;38015;50.924;11.598;2023-01-06T01:22:41;99859.04;;;22.27;31.87
51999;BME280;38015;50.924;11.598;2023-01-06T01:25:12;99863.43;;;22.31;31.76
51999;BME280;38015;50.924;11.598;2023-01-06T01:27:42;99862.72;;;22.14;32.10
51999;BME280;38015;50.924;11.598;2023-01-06T01:30:13;99860.85;;;22.27;31.81
51999;BME280;38015;50.924;11.598;2023-01-06T01:32:43;99859.01;;;22.03;32.30
51999;BME280;38015;50.924;11.598;2023-01-06T01:35:14;99857.58;;;22.24;31.86
51999;BME280;38015;50.924;11.598;2023-01-06T01:37:44;99857.14;;;22.28;31.80
51999;BME280;38015;50.924;11.598;2023-01-06T01:40:15;99858.74;;;22.49;31.36
51999;BME280;38015;50.924;11.598;2023-01-06T01:42:45;99855.52;;;22.43;31.46
51999;BME280;38015;50.924;11.598;2023-01-06T01:45:22;99855.31;;;22.36;31.62
51999;BME280;38015;50.924;11.598;2023-01-06T01:47:50;99860.78;;;22.42;31.48
51999;BME280;38015;50.924;11.598;2023-01-06T01:50:26;99856.18;;;22.43;31.46
51999;BME280;38015;50.924;11.598;2023-01-06T01:52:50;99854.43;;;22.38;31.54
51999;BME280;38015;50.924;11.598;2023-01-06T01:55:18;99852.07;;;22.33;31.64
51999;BME280;38015;50.924;11.598;2023-01-06T01:57:51;99848.95;;;21.99;32.30
51999;BME280;38015;50.924;11.598;2023-01-06T02:00:19;99847.93;;;22.25;31.81
51999;BME280;38015;50.924;11.598;2023-01-06T02:02:49;99844.86;;;22.21;31.88
51999;BME280;38015;50.924;11.598;2023-01-06T02:05:22;99846.47;;;22.21;31.85
51999;BME280;38015;50.924;11.598;2023-01-06T02:07:50;99842.44;;;22.30;31.70
51999;BME280;38015;50.924;11.598;2023-01-06T02:10:22;99842.83;;;22.06;32.16
51999;BME280;38015;50.924;11.598;2023-01-06T02:12:53;99841.57;;;22.22;31.87
51999;BME280;38015;50.924;11.598;2023-01-06T02:15:27;99842.83;;;22.12;32.03
51999;BME280;38015;50.924;11.598;2023-01-06T02:18:06;99845.78;;;22.26;31.80
51999;BME280;38015;50.924;11.598;2023-01-06T02:20:30;99846.22;;;22.19;31.91
51999;BME280;38015;50.924;11.598;2023-01-06T02:33:04;99831.65;;;22.43;31.39
51999;BME280;38015;50.924;11.598;2023-01-06T02:35:37;99827.56;;;22.41;31.41
51999;BME280;38015;50.924;11.598;2023-01-06T02:38:03;99818.89;;;22.30;31.64
51999;BME280;38015;50.924;11.598;2023-01-06T02:40:34;99813.68;;;22.44;31.36
51999;BME280;38015;50.924;11.598;2023-01-06T02:43:09;99810.26;;;22.34;31.57
51999;BME280;38015;50.924;11.598;2023-01-06T02:45:34;99806.29;;;22.35;31.53
51999;BME280;38015;50.924;11.598;2023-01-06T02:48:00;99805.74;;;22.36;31.51
51999;BME280;38015;50.924;11.598;2023-01-06T02:50:35;99809.11;;;22.25;31.73
51999;BME280;38015;50.924;11.598;2023-01-06T02:53:05;99805.56;;;22.34;31.56
51999;BME280;38015;50.924;11.598;2023-01-06T02:55:34;99801.45;;;22.33;31.51
51999;BME280;38015;50.924;11.598;2023-01-06T02:58:04;99799.10;;;22.45;31.31
51999;BME280;38015;50.924;11.598;2023-01-06T03:00:33;99794.92;;;22.30;31.59
51999;BME280;38015;50.924;11.598;2023-01-06T03:03:02;99791.06;;;22.32;31.58
51999;BME280;38015;50.924;11.598;2023-01-06T03:05:33;99790.77;;;22.26;31.69
51999;BME280;38015;50.924;11.598;2023-01-06T03:08:04;99787.77;;;22.33;31.54
51999;BME280;38015;50.924;11.598;2023-01-06T03:10:32;99784.17;;;22.36;31.49
51999;BME280;38015;50.924;11.598;2023-01-06T03:13:06;99790.18;;;22.34;31.56
51999;BME280;38015;50.924;11.598;2023-01-06T03:15:33;99787.56;;;22.44;31.35
51999;BME280;38015;50.924;11.598;2023-01-06T03:18:03;99788.12;;;22.41;31.39
51999;BME280;38015;50.924;11.598;2023-01-06T03:20:33;99787.13;;;22.35;31.51
51999;BME280;38015;50.924;11.598;2023-01-06T03:23:04;99783.88;;;22.25;31.72
51999;BME280;38015;50.924;11.598;2023-01-06T03:25:37;99782.77;;;22.25;31.71
51999;BME280;38015;50.924;11.598;2023-01-06T03:28:05;99782.04;;;22.32;31.59
51999;BME280;38015;50.924;11.598;2023-01-06T03:30:42;99779.71;;;22.29;31.59
51999;BME280;38015;50.924;11.598;2023-01-06T03:33:11;99777.40;;;22.35;31.46
51999;BME280;38015;50.924;11.598;2023-01-06T03:35:46;99773.64;;;22.42;31.36
51999;BME280;38015;50.924;11.598;2023-01-06T03:38:13;99769.47;;;22.33;31.54
51999;BME280;38015;50.924;11.598;2023-01-06T03:40:41;99765.86;;;22.36;31.47
51999;BME280;38015;50.924;11.598;2023-01-06T03:43:11;99761.87;;;22.42;31.37
51999;BME280;38015;50.924;11.598;2023-01-06T03:45:49;99758.92;;;22.30;31.60
51999;BME280;38015;50.924;11.598;2023-01-06T03:48:12;99751.53;;;22.19;31.78
51999;BME280;38015;50.924;11.598;2023-01-06T03:50:41;99754.28;;;22.26;31.66
51999;BME280;38015;50.924;11.598;2023-01-06T03:53:17;99752.65;;;22.10;31.96
51999;BME280;38015;50.924;11.598;2023-01-06T03:55:42;99748.53;;;22.12;31.90
51999;BME280;38015;50.924;11.598;2023-01-06T03:58:11;99745.12;;;22.30;31.60
51999;BME280;38015;50.924;11.598;2023-01-06T04:00:41;99743.74;;;22.14;31.89
51999;BME280;38015;50.924;11.598;2023-01-06T04:03:13;99743.22;;;22.28;31.64
51999;BME280;38015;50.924;11.598;2023-01-06T04:05:42;99743.22;;;22.31;31.58
51999;BME280;38015;50.924;11.598;2023-01-06T04:08:12;99744.14;;;22.28;31.64
51999;BME280;38015;50.924;11.598;2023-01-06T04:10:42;99741.78;;;22.41;31.36
51999;BME280;38015;50.924;11.598;2023-01-06T04:13:13;99741.26;;;22.32;31.55
51999;BME280;38015;50.924;11.598;2023-01-06T04:15:43;99737.10;;;22.09;31.97
51999;BME280;38015;50.924;11.598;2023-01-06T04:18:13;99738.78;;;21.94;32.29
51999;BME280;38015;50.924;11.598;2023-01-06T04:20:44;99743.92;;;22.03;32.10
51999;BME280;38015;50.924;11.598;2023-01-06T04:23:14;99742.99;;;22.29;31.64
51999;BME280;38015;50.924;11.598;2023-01-06T04:25:45;99743.69;;;22.24;31.75
51999;BME280;38015;50.924;11.598;2023-01-06T04:28:15;99734.87;;;22.21;31.79
51999;BME280;38015;50.924;11.598;2023-01-06T04:30:46;99731.99;;;22.08;32.04
51999;BME280;38015;50.924;11.598;2023-01-06T04:33:16;99727.38;;;22.10;32.03
51999;BME280;38015;50.924;11.598;2023-01-06T04:35:47;99721.62;;;22.28;31.67
51999;BME280;38015;50.924;11.598;2023-01-06T04:38:17;99719.74;;;22.01;32.18
51999;BME280;38015;50.924;11.598;2023-01-06T04:40:47;99715.92;;;22.07;32.10
51999;BME280;38015;50.924;11.598;2023-01-06T04:43:18;99714.60;;;21.93;32.37
51999;BME280;38015;50.924;11.598;2023-01-06T04:45:48;99707.10;;;22.31;31.66
51999;BME280;38015;50.924;11.598;2023-01-06T04:48:19;99707.04;;;22.04;32.15
51999;BME280;38015;50.924;11.598;2023-01-06T04:50:49;99698.78;;;22.19;31.93
51999;BME280;38015;50.924;11.598;2023-01-06T04:53:20;99703.45;;;22.01;32.26
51999;BME280;38015;50.924;11.598;2023-01-06T04:55:50;99693.81;;;22.21;31.88
51999;BME280;38015;50.924;11.598;2023-01-06T04:58:21;99693.86;;;22.12;32.03
51999;BME280;38015;50.924;11.598;2023-01-06T05:00:58;99693.63;;;22.24;31.80
51999;BME280;38015;50.924;11.598;2023-01-06T05:03:22;99695.85;;;22.02;32.25
51999;BME280;38015;50.924;11.598;2023-01-06T05:05:52;99691.66;;;22.29;31.78
51999;BME280;38015;50.924;11.598;2023-01-06T05:08:23;99690.06;;;22.06;32.16
51999;BME280;38015;50.924;11.598;2023-01-06T05:10:58;99685.10;;;21.94;32.44
51999;BME280;38015;50.924;11.598;2023-01-06T05:13:24;99682.64;;;22.15;32.08
51999;BME280;38015;50.924;11.598;2023-01-06T05:15:55;99678.57;;;22.16;32.07
51999;BME280;38015;50.924;11.598;2023-01-06T05:18:24;99674.72;;;22.32;31.78
51999;BME280;38015;50.924;11.598;2023-01-06T05:20:55;99672.61;;;22.23;32.01
51999;BME280;38015;50.924;11.598;2023-01-06T05:23:25;99669.46;;;22.44;31.60
51999;BME280;38015;50.924;11.598;2023-01-06T05:25:56;99671.88;;;22.45;31.58
51999;BME280;38015;50.924;11.598;2023-01-06T05:28:27;99674.86;;;22.49;31.49
51999;BME280;38015;50.924;11.598;2023-01-06T05:30:58;99674.96;;;22.46;31.58
51999;BME280;38015;50.924;11.598;2023-01-06T05:33:27;99671.23;;;22.56;31.38
51999;BME280;38015;50.924;11.598;2023-01-06T05:35:58;99673.32;;;22.58;31.37
51999;BME280;38015;50.924;11.598;2023-01-06T05:38:28;99679.40;;;22.50;31.49
51999;BME280;38015;50.924;11.598;2023-01-06T05:40:59;99677.65;;;22.48;31.58
51999;BME280;38015;50.924;11.598;2023-01-06T05:43:32;99675.94;;;22.52;31.52
51999;BME280;38015;50.924;11.598;2023-01-06T05:46:04;99671.35;;;22.40;31.76
51999;BME280;38015;50.924;11.598;2023-01-06T05:48:30;99667.34;;;22.24;32.10
51999;BME280;38015;50.924;11.598;2023-01-06T05:51:02;99665.78;;;22.42;31.78
51999;BME280;38015;50.924;11.598;2023-01-06T05:53:31;99672.18;;;22.28;32.05
51999;BME280;38015;50.924;11.598;2023-01-06T05:56:02;99672.87;;;22.26;32.10
51999;BME280;38015;50.924;11.598;2023-01-06T05:58:32;99667.87;;;22.35;31.92
51999;BME280;38015;50.924;11.598;2023-01-06T06:01:04;99673.48;;;22.05;32.49
51999;BME280;38015;50.924;11.598;2023-01-06T06:03:33;99665.20;;;22.16;32.29
51999;BME280;38015;50.924;11.598;2023-01-06T06:06:04;99668.32;;;22.05;32.50
51999;BME280;38015;50.924;11.598;2023-01-06T06:08:34;99665.17;;;22.25;32.15
51999;BME280;38015;50.924;11.598;2023-01-06T06:11:06;99668.81;;;22.05;32.48
51999;BME280;38015;50.924;11.598;2023-01-06T06:13:35;99668.06;;;22.07;32.51
51999;BME280;38015;50.924;11.598;2023-01-06T06:16:07;99665.47;;;22.12;32.39
51999;BME280;38015;50.924;11.598;2023-01-06T06:18:36;99656.75;;;22.16;32.37
51999;BME280;38015;50.924;11.598;2023-01-06T06:21:06;99656.17;;;22.20;32.25
51999;BME280;38015;50.924;11.598;2023-01-06T06:23:36;99656.85;;;22.39;31.88
51999;BME280;38015;50.924;11.598;2023-01-06T06:26:08;99658.24;;;22.29;32.04
51999;BME280;38015;50.924;11.598;2023-01-06T06:28:38;99660.74;;;22.12;32.38
51999;BME280;38015;50.924;11.598;2023-01-06T06:31:09;99647.33;;;22.20;32.25
51999;BME280;38015;50.924;11.598;2023-01-06T06:33:38;99647.62;;;22.26;32.11
51999;BME280;38015;50.924;11.598;2023-01-06T06:36:10;99646.18;;;22.43;31.80
51999;BME280;38015;50.924;11.598;2023-01-06T06:38:39;99647.06;;;22.26;32.13
51999;BME280;38015;50.924;11.598;2023-01-06T06:41:10;99647.92;;;22.42;32.08
51999;BME280;38015;50.924;11.598;2023-01-06T06:43:40;99648.69;;;22.53;31.91
51999;BME280;38015;50.924;11.598;2023-01-06T06:46:11;99642.11;;;22.52;32.28
51999;BME280;38015;50.924;11.598;2023-01-06T06:48:41;99648.18;;;22.59;32.73
51999;BME280;38015;50.924;11.598;2023-01-06T06:51:13;99651.80;;;22.71;32.76
51999;BME280;38015;50.924;11.598;2023-01-06T06:53:43;99653.90;;;22.72;33.19
51999;BME280;38015;50.924;11.598;2023-01-06T06:56:14;99650.09;;;22.78;33.49
51999;BME280;38015;50.924;11.598;2023-01-06T06:58:43;99648.70;;;22.78;33.59
51999;BME280;38015;50.924;11.598;2023-01-06T07:01:15;99648.80;;;22.76;33.46
51999;BME280;38015;50.924;11.598;2023-01-06T07:03:44;99650.19;;;22.80;33.26
51999;BME280;38015;50.924;11.598;2023-01-06T07:06:18;99651.78;;;22.79;33.19
51999;BME280;38015;50.924;11.598;2023-01-06T07:08:45;99646.92;;;22.79;33.10
51999;BME280;38015;50.924;11.598;2023-01-06T07:11:15;99646.87;;;22.87;32.86
51999;BME280;38015;50.924;11.598;2023-01-06T07:13:46;99647.37;;;22.85;32.84
51999;BME280;38015;50.924;11.598;2023-01-06T07:16:16;99648.70;;;22.85;32.75
51999;BME280;38015;50.924;11.598;2023-01-06T07:18:46;99647.27;;;22.77;32.88
51999;BME280;38015;50.924;11.598;2023-01-06T07:21:17;99646.06;;;22.82;32.73
51999;BME280;38015;50.924;11.598;2023-01-06T07:23:47;99639.24;;;22.79;32.72
51999;BME280;38015;50.924;11.598;2023-01-06T07:26:18;99636.16;;;22.92;32.42
51999;BME280;38015;50.924;11.598;2023-01-06T07:28:48;99645.41;;;22.86;32.48
51999;BME280;38015;50.924;11.598;2023-01-06T07:31:18;99645.91;;;22.94;32.28
51999;BME280;38015;50.924;11.598;2023-01-06T07:33:49;99642.62;;;22.87;32.35
51999;BME280;38015;50.924;11.598;2023-01-06T07:36:19;99656.65;;;22.92;32.23
51999;BME280;38015;50.924;11.598;2023-01-06T07:38:50;99653.34;;;22.91;32.23
51999;BME280;38015;50.924;11.598;2023-01-06T07:41:20;99665.63;;;22.92;32.17
51999;BME280;38015;50.924;11.598;2023-01-06T07:43:51;99662.67;;;22.95;32.10
51999;BME280;38015;50.924;11.598;2023-01-06T07:46:21;99643.85;;;22.98;32.07
51999;BME280;38015;50.924;11.598;2023-01-06T07:48:51;99650.47;;;23.16;32.02
51999;BME280;38015;50.924;11.598;2023-01-06T07:51:22;99650.75;;;23.16;32.03
51999;BME280;38015;50.924;11.598;2023-01-06T07:53:53;99650.22;;;23.15;32.04
51999;BME280;38015;50.924;11.598;2023-01-06T07:56:23;99644.05;;;23.11;32.33
51999;BME280;38015;50.924;11.598;2023-01-06T07:58:53;99645.12;;;23.21;32.16
51999;BME280;38015;50.924;11.598;2023-01-06T08:01:24;99643.61;;;23.19;32.38
51999;BME280;38015;50.924;11.598;2023-01-06T08:03:54;99645.78;;;23.20;32.45
51999;BME280;38015;50.924;11.598;2023-01-06T08:06:25;99652.68;;;23.28;32.39
51999;BME280;38015;50.924;11.598;2023-01-06T08:08:55;99654.15;;;23.23;32.58
51999;BME280;38015;50.924;11.598;2023-01-06T08:11:25;99643.66;;;23.15;32.80
51999;BME280;38015;50.924;11.598;2023-01-06T08:13:56;99640.11;;;23.25;32.71
51999;BME280;38015;50.924;11.598;2023-01-06T08:16:27;99637.81;;;23.22;32.78
51999;BME280;38015;50.924;11.598;2023-01-06T08:18:57;99634.61;;;23.26;32.85
51999;BME280;38015;50.924;11.598;2023-01-06T08:21:27;99640.91;;;23.17;33.06
51999;BME280;38015;50.924;11.598;2023-01-06T08:23:58;99653.94;;;23.19;32.99
51999;BME280;38015;50.924;11.598;2023-01-06T08:26:28;99654.57;;;23.24;32.94
51999;BME280;38015;50.924;11.598;2023-01-06T08:28:58;99654.22;;;23.34;32.77
51999;BME280;38015;50.924;11.598;2023-01-06T08:31:29;99644.95;;;23.11;33.24
51999;BME280;38015;50.924;11.598;2023-01-06T08:33:59;99645.80;;;23.17;33.07
51999;BME280;38015;50.924;11.598;2023-01-06T08:36:30;99647.05;;;23.07;33.11
51999;BME280;38015;50.924;11.598;2023-01-06T08:39:00;99645.85;;;23.11;32.95
51999;BME280;38015;50.924;11.598;2023-01-06T08:41:31;99651.56;;;23.09;33.04
51999;BME280;38015;50.924;11.598;2023-01-06T08:44:01;99656.30;;;23.10;32.94
51999;BME280;38015;50.924;11.598;2023-01-06T08:46:32;99664.21;;;23.16;32.71
51999;BME280;38015;50.924;11.598;2023-01-06T08:49:02;99666.91;;;23.21;32.57
51999;BME280;38015;50.924;11.598;2023-01-06T08:51:32;99668.92;;;23.29;32.48
51999;BME280;38015;50.924;11.598;2023-01-06T08:54:03;99667.61;;;23.31;32.52
51999;BME280;38015;50.924;11.598;2023-01-06T08:56:33;99668.12;;;23.38;32.40
51999;BME280;38015;50.924;11.598;2023-01-06T08:59:04;99672.60;;;23.34;32.56
51999;BME280;38015;50.924;11.598;2023-01-06T09:01:35;99682.61;;;23.30;32.68
51999;BME280;38015;50.924;11.598;2023-01-06T09:04:06;99685.79;;;23.27;32.81
51999;BME280;38015;50.924;11.598;2023-01-06T09:06:36;99693.25;;;23.29;33.05
51999;BME280;38015;50.924;11.598;2023-01-06T09:09:06;99694.73;;;23.29;32.93
51999;BME280;38015;50.924;11.598;2023-01-06T09:11:36;99698.78;;;23.27;33.00
51999;BME280;38015;50.924;11.598;2023-01-06T09:14:07;99708.89;;;23.34;32.83
51999;BME280;38015;50.924;11.598;2023-01-06T09:16:37;99708.46;;;23.41;32.71
51999;BME280;38015;50.924;11.598;2023-01-06T09:19:10;99712.64;;;23.44;32.79
51999;BME280;38015;50.924;11.598;2023-01-06T09:21:38;99708.90;;;23.38;32.95
51999;BME280;38015;50.924;11.598;2023-01-06T09:24:11;99707.37;;;23.40;33.03
51999;BME280;38015;50.924;11.598;2023-01-06T09:26:39;99708.68;;;23.35;33.07
51999;BME280;38015;50.924;11.598;2023-01-06T09:29:09;99700.47;;;23.47;32.77
51999;BME280;38015;50.924;11.598;2023-01-06T09:31:39;99697.65;;;23.41;32.97
51999;BME280;38015;50.924;11.598;2023-01-06T09:34:10;99695.65;;;23.44;32.92
51999;BME280;38015;50.924;11.598;2023-01-06T09:36:40;99697.65;;;23.42;32.96
51999;BME280;38015;50.924;11.598;2023-01-06T09:39:10;99697.43;;;23.15;33.58
51999;BME280;38015;50.924;11.598;2023-01-06T09:41:50;99697.53;;;23.38;33.01
51999;BME280;38015;50.924;11.598;2023-01-06T09:44:13;99694.35;;;23.33;33.18
51999;BME280;38015;50.924;11.598;2023-01-06T09:46:44;99697.21;;;23.45;32.95
51999;BME280;38015;50.924;11.598;2023-01-06T09:49:20;99695.37;;;23.46;32.86
51999;BME280;38015;50.924;11.598;2023-01-06T09:51:43;99687.93;;;23.47;32.95
51999;BME280;38015;50.924;11.598;2023-01-06T09:54:16;99689.91;;;23.31;33.24
51999;BME280;38015;50.924;11.598;2023-01-06T09:56:47;99692.21;;;23.40;32.94
51999;BME280;38015;50.924;11.598;2023-01-06T09:59:17;99692.42;;;23.41;32.96
51999;BME280;38015;50.924;11.598;2023-01-06T10:01:46;99692.37;;;23.46;32.87
51999;BME280;38015;50.924;11.598;2023-01-06T10:04:21;99687.56;;;23.45;32.86
51999;BME280;38015;50.924;11.598;2023-01-06T10:06:52;99688.31;;;23.50;32.88
51999;BME280;38015;50.924;11.598;2023-01-06T10:09:23;99689.51;;;23.53;32.92
51999;BME280;38015;50.924;11.598;2023-01-06T10:11:55;99688.60;;;23.55;32.96
51999;BME280;38015;50.924;11.598;2023-01-06T10:14:24;99688.31;;;23.52;33.06
51999;BME280;38015;50.924;11.598;2023-01-06T10:16:59;99698.26;;;23.39;33.34
51999;BME280;38015;50.924;11.598;2023-01-06T10:19:23;99701.66;;;23.55;32.94
51999;BME280;38015;50.924;11.598;2023-01-06T10:21:56;99699.67;;;23.59;33.02
51999;BME280;38015;50.924;11.598;2023-01-06T10:26:50;99718.74;;;23.59;33.10
51999;BME280;38015;50.924;11.598;2023-01-06T10:29:20;99720.17;;;23.26;33.63
51999;BME280;38015;50.924;11.598;2023-01-06T10:31:52;99721.29;;;23.33;33.59
51999;BME280;38015;50.924;11.598;2023-01-06T10:34:21;99719.53;;;23.54;32.68
51999;BME280;38015;50.924;11.598;2023-01-06T10:36:55;99716.35;;;23.61;32.69
51999;BME280;38015;50.924;11.598;2023-01-06T10:39:24;99717.01;;;23.59;32.60
51999;BME280;38015;50.924;11.598;2023-01-06T10:41:57;99713.86;;;23.58;32.70
51999;BME280;38015;50.924;11.598;2023-01-06T10:44:22;99705.59;;;23.48;32.65
51999;BME280;38015;50.924;11.598;2023-01-06T10:46:52;99709.09;;;23.50;32.64
51999;BME280;38015;50.924;11.598;2023-01-06T10:49:23;99708.89;;;23.25;33.25
51999;BME280;38015;50.924;11.598;2023-01-06T10:51:57;99715.45;;;23.43;32.73
51999;BME280;38015;50.924;11.598;2023-01-06T10:54:27;99722.13;;;22.12;34.98
51999;BME280;38015;50.924;11.598;2023-01-06T10:56:57;99720.27;;;22.02;34.91
51999;BME280;38015;50.924;11.598;2023-01-06T10:59:24;99715.41;;;22.02;34.82
51999;BME280;38015;50.924;11.598;2023-01-06T11:01:56;99711.16;;;21.64;35.45
51999;BME280;38015;50.924;11.598;2023-01-06T11:04:26;99703.30;;;21.71;35.28
51999;BME280;38015;50.924;11.598;2023-01-06T11:06:59;99699.63;;;21.54;35.59
51999;BME280;38015;50.924;11.598;2023-01-06T11:09:30;99705.39;;;21.75;35.24
51999;BME280;38015;50.924;11.598;2023-01-06T11:12:01;99710.48;;;21.93;34.96
51999;BME280;38015;50.924;11.598;2023-01-06T11:14:29;99713.99;;;22.10;34.57
51999;BME280;38015;50.924;11.598;2023-01-06T11:16:59;99700.10;;;22.13;34.32
51999;BME280;38015;50.924;11.598;2023-01-06T11:19:34;99698.28;;;21.49;35.61
51999;BME280;38015;50.924;11.598;2023-01-06T11:21:58;99699.58;;;21.62;35.46
51999;BME280;38015;50.924;11.598;2023-01-06T11:24:29;99690.35;;;21.17;36.25
51999;BME280;38015;50.924;11.598;2023-01-06T11:27:01;99689.37;;;20.95;36.78
51999;BME280;38015;50.924;11.598;2023-01-06T11:29:32;99692.96;;;20.65;37.35
51999;BME280;38015;50.924;11.598;2023-01-06T11:32:03;99685.64;;;20.50;37.65
51999;BME280;38015;50.924;11.598;2023-01-06T11:34:31;99688.01;;;20.79;36.96
51999;BME280;38015;50.924;11.598;2023-01-06T11:37:01;99682.64;;;21.37;35.58
51999;BME280;38015;50.924;11.598;2023-01-06T11:39:34;99682.94;;;20.47;37.38
51999;BME280;38015;50.924;11.598;2023-01-06T11:42:08;99682.99;;;20.58;37.27
51999;BME280;38015;50.924;11.598;2023-01-06T11:44:34;99671.78;;;21.10;36.20
51999;BME280;38015;50.924;11.598;2023-01-06T11:47:05;99670.94;;;22.80;32.71
51999;BME280;38015;50.924;11.598;2023-01-06T11:49:36;99666.63;;;22.98;32.56
51999;BME280;38015;50.924;11.598;2023-01-06T11:52:06;99668.60;;;23.37;31.88
51999;BME280;38015;50.924;11.598;2023-01-06T11:54:36;99664.71;;;23.44;31.88
51999;BME280;38015;50.924;11.598;2023-01-06T11:59:45;99646.88;;;23.60;31.68
51999;BME280;38015;50.924;11.598;2023-01-06T12:02:11;99637.16;;;23.52;31.77
51999;BME280;38015;50.924;11.598;2023-01-06T12:04:40;99624.03;;;23.38;31.98
51999;BME280;38015;50.924;11.598;2023-01-06T12:07:13;99628.85;;;23.49;31.77
51999;BME280;38015;50.924;11.598;2023-01-06T12:09:38;99630.19;;;23.49;31.69
51999;BME280;38015;50.924;11.598;2023-01-06T12:12:10;99623.30;;;23.42;31.81
51999;BME280;38015;50.924;11.598;2023-01-06T12:14:38;99630.07;;;23.39;31.85
51999;BME280;38015;50.924;11.598;2023-01-06T12:17:12;99633.47;;;23.39;31.84
51999;BME280;38015;50.924;11.598;2023-01-06T12:19:42;99628.32;;;23.41;31.78
51999;BME280;38015;50.924;11.598;2023-01-06T12:22:17;99629.88;;;23.48;31.63
51999;BME280;38015;50.924;11.598;2023-01-06T12:24:40;99628.26;;;23.47;31.62
51999;BME280;38015;50.924;11.598;2023-01-06T12:27:11;99623.49;;;23.42;31.65
51999;BME280;38015;50.924;11.598;2023-01-06T12:29:40;99623.49;;;23.34;31.82
51999;BME280;38015;50.924;11.598;2023-01-06T12:32:15;99624.34;;;23.48;31.46
51999;BME280;38015;50.924;11.598;2023-01-06T12:34:43;99626.75;;;23.48;31.39
51999;BME280;38015;50.924;11.598;2023-01-06T12:37:18;99621.04;;;23.36;31.65
51999;BME280;38015;50.924;11.598;2023-01-06T12:39:49;99629.48;;;23.36;31.66
51999;BME280;38015;50.924;11.598;2023-01-06T12:42:21;99625.41;;;23.33;31.70
51999;BME280;38015;50.924;11.598;2023-01-06T12:44:45;99623.53;;;23.44;31.40
51999;BME280;38015;50.924;11.598;2023-01-06T12:47:16;99615.37;;;23.45;31.40
51999;BME280;38015;50.924;11.598;2023-01-06T12:49:48;99624.58;;;23.27;31.75
51999;BME280;38015;50.924;11.598;2023-01-06T12:52:16;99627.33;;;23.41;31.50
51999;BME280;38015;50.924;11.598;2023-01-06T12:54:50;99635.81;;;23.38;31.58
51999;BME280;38015;50.924;11.598;2023-01-06T12:57:26;99640.07;;;23.40;31.49
51999;BME280;38015;50.924;11.598;2023-01-06T12:59:57;99647.12;;;23.48;31.31
51999;BME280;38015;50.924;11.598;2023-01-06T13:02:27;99651.45;;;23.38;31.49
51999;BME280;38015;50.924;11.598;2023-01-06T13:04:58;99648.86;;;23.24;31.79
51999;BME280;38015;50.924;11.598;2023-01-06T13:07:28;99650.75;;;23.43;31.37
51999;BME280;38015;50.924;11.598;2023-01-06T13:09:56;99650.74;;;23.38;31.46
51999;BME280;38015;50.924;11.598;2023-01-06T13:14:53;99657.09;;;23.52;31.20
51999;BME280;38015;50.924;11.598;2023-01-06T13:17:22;99662.13;;;23.50;31.21
51999;BME280;38015;50.924;11.598;2023-01-06T13:19:50;99662.44;;;23.49;31.25
51999;BME280;38015;50.924;11.598;2023-01-06T13:22:23;99657.76;;;23.60;31.03
51999;BME280;38015;50.924;11.598;2023-01-06T13:27:35;99655.07;;;23.28;31.65